createdAt,value
2018-12-20T00:01:12.563Z,6.20
2018-12-20T00:03:43.682Z,7.30
2018-12-20T00:06:14.954Z,7.67
2018-12-20T00:08:45.461Z,6.80
2018-12-20T00:11:17.252Z,7.43
2018-12-20T00:13:50.075Z,7.20
2018-12-20T00:16:20.050Z,7.20
2018-12-20T00:18:50.716Z,6.97
2018-12-20T00:21:21.932Z,7.37
2018-12-20T00:23:52.760Z,7.80
2018-12-20T00:26:24.433Z,7.93
2018-12-20T00:28:55.298Z,7.47
2018-12-20T00:31:25.311Z,7.50
2018-12-20T00:33:56.161Z,7.80
2018-12-20T00:36:27.782Z,8.50
2018-12-20T00:38:58.761Z,9.23
2018-12-20T00:41:30.577Z,9.30
2018-12-20T00:44:04.142Z,9.50
2018-12-20T00:46:34.108Z,9.63
2018-12-20T00:49:05.355Z,9.70
2018-12-20T00:51:34.818Z,9.77
2018-12-20T00:54:06.458Z,10.13
2018-12-20T00:56:38.098Z,10.40
2018-12-20T00:59:08.228Z,10.67
2018-12-20T01:01:39.290Z,9.80
2018-12-20T01:04:10.668Z,9.40
2018-12-20T01:06:40.213Z,10.80
2018-12-20T01:09:11.508Z,9.70
2018-12-20T01:11:42.535Z,10.60
2018-12-20T01:14:13.265Z,10.27
2018-12-20T01:16:44.098Z,9.10
2018-12-20T01:19:14.235Z,11.03
2018-12-20T01:21:44.337Z,10.40
2018-12-20T01:24:14.073Z,10.60
2018-12-20T01:26:46.049Z,10.17
2018-12-20T01:29:16.760Z,11.00
2018-12-20T01:31:46.873Z,10.60
2018-12-20T01:34:18.835Z,10.60
2018-12-20T01:36:50.668Z,10.43
2018-12-20T01:39:20.982Z,10.33
2018-12-20T01:41:51.904Z,10.30
2018-12-20T01:44:22.075Z,10.37
2018-12-20T01:46:52.222Z,10.97
2018-12-20T01:49:22.349Z,11.47
2018-12-20T01:51:52.251Z,11.17
2018-12-20T01:54:21.866Z,11.60
2018-12-20T01:56:52.810Z,11.93
2018-12-20T01:59:22.702Z,11.57
2018-12-20T02:01:53.298Z,11.20
2018-12-20T02:04:23.840Z,12.00
2018-12-20T02:06:54.883Z,11.67
2018-12-20T02:09:27.962Z,10.47
2018-12-20T02:11:58.251Z,12.63
2018-12-20T02:14:28.549Z,12.07
2018-12-20T02:16:59.654Z,11.77
2018-12-20T02:19:29.981Z,11.40
2018-12-20T02:22:00.266Z,12.17
2018-12-20T02:24:30.184Z,12.37
2018-12-20T02:27:00.190Z,12.20
2018-12-20T02:29:30.909Z,11.77
2018-12-20T02:32:01.486Z,12.60
2018-12-20T02:34:31.503Z,13.20
2018-12-20T02:37:02.742Z,12.83
2018-12-20T02:39:33.401Z,12.67
2018-12-20T02:42:03.822Z,12.00
2018-12-20T02:44:34.002Z,12.10
2018-12-20T02:47:04.138Z,13.37
2018-12-20T02:49:34.216Z,12.13
2018-12-20T02:52:05.201Z,11.90
2018-12-20T02:54:36.577Z,12.57
2018-12-20T02:57:06.467Z,12.23
2018-12-20T02:59:37.316Z,12.27
2018-12-20T03:02:07.942Z,12.17
2018-12-20T03:04:38.842Z,12.33
2018-12-20T03:07:10.141Z,12.60
2018-12-20T03:09:44.813Z,12.70
2018-12-20T03:12:15.630Z,13.00
2018-12-20T03:14:46.360Z,12.27
2018-12-20T03:17:16.451Z,10.33
2018-12-20T03:19:48.208Z,11.73
2018-12-20T03:22:18.763Z,12.00
2018-12-20T03:24:50.328Z,12.00
2018-12-20T03:27:21.041Z,11.03
2018-12-20T03:29:52.447Z,10.93
2018-12-20T03:32:23.743Z,10.47
2018-12-20T03:34:55.526Z,11.20
2018-12-20T03:37:26.523Z,11.73
2018-12-20T03:39:56.867Z,9.90
2018-12-20T03:42:26.622Z,10.17
2018-12-20T03:44:58.085Z,10.97
2018-12-20T03:47:28.729Z,10.57
2018-12-20T03:50:00.274Z,9.80
2018-12-20T03:52:31.403Z,9.00
2018-12-20T03:55:01.293Z,9.73
2018-12-20T03:57:32.002Z,8.70
2018-12-20T04:00:02.194Z,9.17
2018-12-20T04:02:32.265Z,8.93
2018-12-20T04:05:02.565Z,8.40
2018-12-20T04:07:33.266Z,8.83
2018-12-20T04:10:04.754Z,8.03
2018-12-20T04:12:36.481Z,8.40
2018-12-20T04:15:06.067Z,7.97
2018-12-20T04:17:37.471Z,7.37
2018-12-20T04:20:09.626Z,8.73
2018-12-20T04:22:40.914Z,8.47
2018-12-20T04:25:11.755Z,7.37
2018-12-20T04:27:42.677Z,8.10
2018-12-20T04:30:13.016Z,8.67
2018-12-20T04:32:43.155Z,8.83
2018-12-20T04:35:14.107Z,8.27
2018-12-20T04:37:44.378Z,9.17
2018-12-20T04:40:15.026Z,8.80
2018-12-20T04:42:45.306Z,8.87
2018-12-20T04:45:15.486Z,8.83
2018-12-20T04:47:46.600Z,9.90
2018-12-20T04:50:18.988Z,9.00
2018-12-20T04:52:49.378Z,9.77
2018-12-20T04:55:20.238Z,9.13
2018-12-20T04:57:53.532Z,9.40
2018-12-20T05:00:24.046Z,9.67
2018-12-20T05:02:54.375Z,9.27
2018-12-20T05:05:24.546Z,9.87
2018-12-20T05:07:55.409Z,10.00
2018-12-20T05:10:26.709Z,10.30
2018-12-20T05:12:56.341Z,9.47
2018-12-20T05:15:26.935Z,9.03
2018-12-20T05:17:58.291Z,10.40
2018-12-20T05:20:30.314Z,10.90
2018-12-20T05:23:01.639Z,10.30
2018-12-20T05:25:33.627Z,9.77
2018-12-20T05:28:03.712Z,10.67
2018-12-20T05:30:35.161Z,11.43
2018-12-20T05:33:06.804Z,10.93
2018-12-20T05:35:39.379Z,11.27
2018-12-20T05:38:09.610Z,11.37
2018-12-20T05:40:40.254Z,11.13
2018-12-20T05:43:12.095Z,11.33
2018-12-20T05:45:53.708Z,10.73
2018-12-20T05:48:24.089Z,11.67
2018-12-20T05:51:04.929Z,10.40
2018-12-20T05:53:38.596Z,11.00
2018-12-20T05:56:09.350Z,11.07
2018-12-20T05:58:44.591Z,11.93
2018-12-20T06:01:16.407Z,11.50
2018-12-20T06:03:48.387Z,11.17
2018-12-20T06:06:20.604Z,11.77
2018-12-20T06:08:50.881Z,11.60
2018-12-20T06:11:22.067Z,10.70
2018-12-20T06:13:55.252Z,11.27
2018-12-20T06:16:27.095Z,11.43
2018-12-20T06:18:58.352Z,11.43
2018-12-20T06:21:28.102Z,11.60
2018-12-20T06:24:00.431Z,10.30
2018-12-20T06:26:32.668Z,11.53
2018-12-20T06:29:03.931Z,11.40
2018-12-20T06:31:35.518Z,11.20
2018-12-20T06:34:08.320Z,11.43
2018-12-20T06:36:39.010Z,10.30
2018-12-20T06:39:09.061Z,11.07
2018-12-20T06:41:42.680Z,11.47
2018-12-20T06:44:13.917Z,10.37
2018-12-20T06:46:52.206Z,10.27
2018-12-20T06:49:24.275Z,10.73
2018-12-20T06:51:55.920Z,10.63
2018-12-20T06:54:29.680Z,12.03
2018-12-20T06:57:02.872Z,11.73
2018-12-20T06:59:36.083Z,12.43
2018-12-20T07:02:05.785Z,12.53
2018-12-20T07:04:40.205Z,11.77
2018-12-20T07:07:12.352Z,11.60
2018-12-20T07:09:43.624Z,12.33
2018-12-20T07:12:15.307Z,10.83
2018-12-20T07:14:47.631Z,11.20
2018-12-20T07:17:19.805Z,11.13
2018-12-20T07:19:51.738Z,11.17
2018-12-20T07:22:23.310Z,11.00
2018-12-20T07:24:55.377Z,10.73
2018-12-20T07:27:28.043Z,10.50
2018-12-20T07:29:58.159Z,9.70
2018-12-20T07:32:28.181Z,10.27
2018-12-20T07:34:59.438Z,10.37
2018-12-20T07:37:30.628Z,10.77
2018-12-20T07:40:02.013Z,10.40
2018-12-20T07:42:34.665Z,10.87
2018-12-20T07:45:05.745Z,10.43
2018-12-20T07:47:36.575Z,9.40
2018-12-20T07:50:08.414Z,9.43
2018-12-20T07:52:38.373Z,9.87
2018-12-20T07:55:11.155Z,9.10
2018-12-20T07:57:41.832Z,8.63
2018-12-20T08:00:12.149Z,10.00
2018-12-20T08:02:42.905Z,9.07
2018-12-20T08:05:14.200Z,8.37
2018-12-20T08:07:45.647Z,9.17
2018-12-20T08:10:14.964Z,8.97
2018-12-20T08:12:46.704Z,8.27
2018-12-20T08:15:20.548Z,8.43
2018-12-20T08:17:51.309Z,8.03
2018-12-20T08:20:22.706Z,8.10
2018-12-20T08:22:54.902Z,8.00
2018-12-20T08:25:25.501Z,7.07
2018-12-20T08:27:56.558Z,7.53
2018-12-20T08:30:28.707Z,7.23
2018-12-20T08:33:02.762Z,7.13
2018-12-20T08:35:36.637Z,6.77
2018-12-20T08:38:08.240Z,6.67
2018-12-20T08:40:38.557Z,6.77
2018-12-20T08:43:10.531Z,7.07
2018-12-20T08:45:41.261Z,6.50
2018-12-20T08:48:13.936Z,6.60
2018-12-20T08:50:45.953Z,6.97
2018-12-20T08:53:16.589Z,6.43
2018-12-20T08:55:47.058Z,6.83
2018-12-20T08:58:17.914Z,6.67
2018-12-20T09:00:49.592Z,5.80
2018-12-20T09:03:21.978Z,6.23
2018-12-20T09:05:53.254Z,6.23
2018-12-20T09:08:25.458Z,6.07
2018-12-20T09:10:56.421Z,5.70
2018-12-20T09:13:26.765Z,5.37
2018-12-20T09:15:58.588Z,5.73
2018-12-20T09:18:28.852Z,5.40
2018-12-20T09:20:59.176Z,5.07
2018-12-20T09:23:30.199Z,4.90
2018-12-20T09:26:00.742Z,5.73
2018-12-20T09:28:31.513Z,4.37
2018-12-20T09:31:01.628Z,5.03
2018-12-20T09:33:32.355Z,4.67
2018-12-20T09:36:04.131Z,4.70
2018-12-20T09:38:36.166Z,4.87
2018-12-20T09:41:07.701Z,5.30
2018-12-20T09:43:38.599Z,4.80
2018-12-20T09:46:10.824Z,4.17
2018-12-20T09:48:42.974Z,4.60
2018-12-20T09:51:15.072Z,4.07
2018-12-20T09:53:47.169Z,4.17
2018-12-20T09:56:17.466Z,3.70
2018-12-20T09:58:48.818Z,3.30
2018-12-20T10:01:22.101Z,3.20
2018-12-20T10:03:53.038Z,3.20
2018-12-20T10:06:24.210Z,3.40
2018-12-20T10:08:57.353Z,3.17
2018-12-20T10:11:30.864Z,3.57
2018-12-20T10:14:01.638Z,3.50
2018-12-20T10:16:33.241Z,3.37
2018-12-20T10:19:03.902Z,3.83
2018-12-20T10:21:34.558Z,2.90
2018-12-20T10:24:05.172Z,3.50
2018-12-20T10:26:35.574Z,2.77
2018-12-20T10:29:06.693Z,3.03
2018-12-20T10:31:38.654Z,3.30
2018-12-20T10:34:10.687Z,3.03
2018-12-20T10:36:42.155Z,3.27
2018-12-20T10:39:12.747Z,3.53
2018-12-20T10:41:44.317Z,3.03
2018-12-20T10:44:15.351Z,2.70
2018-12-20T10:46:46.289Z,3.50
2018-12-20T10:49:15.989Z,2.40
2018-12-20T10:51:47.276Z,2.90
2018-12-20T10:54:18.522Z,3.10
2018-12-20T10:56:48.692Z,2.53
2018-12-20T10:59:19.953Z,2.53
2018-12-20T11:02:56.903Z,2.03
2018-12-20T11:05:33.649Z,2.53
2018-12-20T11:08:11.214Z,2.27
2018-12-20T11:10:44.459Z,2.20
2018-12-20T11:13:21.909Z,3.83
2018-12-20T11:15:54.042Z,2.20
2018-12-20T11:18:24.795Z,2.40
2018-12-20T11:20:56.193Z,2.47
2018-12-20T11:23:28.375Z,2.50
2018-12-20T11:26:00.624Z,2.70
2018-12-20T11:28:31.734Z,2.13
2018-12-20T11:31:02.626Z,2.43
2018-12-20T11:33:33.922Z,2.67
2018-12-20T11:36:05.440Z,2.60
2018-12-20T11:38:36.183Z,2.27
2018-12-20T11:41:08.108Z,2.23
2018-12-20T11:43:39.129Z,1.93
2018-12-20T11:46:10.463Z,2.27
2018-12-20T11:48:44.205Z,2.03
2018-12-20T11:51:15.289Z,2.27
2018-12-20T11:53:45.660Z,2.20
2018-12-20T11:56:16.611Z,1.90
2018-12-20T11:58:48.740Z,2.57
2018-12-20T12:01:18.713Z,2.10
2018-12-20T12:03:48.434Z,2.00
2018-12-20T12:06:18.758Z,1.80
2018-12-20T12:08:49.839Z,1.60
2018-12-20T12:11:20.887Z,2.23
2018-12-20T12:13:50.536Z,1.80
2018-12-20T12:16:21.736Z,1.70
2018-12-20T12:18:53.294Z,1.80
2018-12-20T12:21:24.237Z,2.00
2018-12-20T12:23:54.867Z,1.70
2018-12-20T12:26:24.452Z,1.70
2018-12-20T12:28:56.354Z,1.50
2018-12-20T12:31:26.672Z,1.63
2018-12-20T12:33:57.020Z,1.80
2018-12-20T12:36:29.361Z,1.90
2018-12-20T12:38:59.365Z,1.70
2018-12-20T12:41:29.633Z,1.40
2018-12-20T12:44:00.006Z,1.47
2018-12-20T12:46:30.894Z,1.50
2018-12-20T12:49:01.427Z,1.30
2018-12-20T12:51:32.179Z,1.40
2018-12-20T12:54:03.541Z,1.60
2018-12-20T12:56:36.367Z,1.40
2018-12-20T12:59:06.715Z,1.50
2018-12-20T13:01:41.168Z,1.30
2018-12-20T13:04:11.944Z,1.10
2018-12-20T13:06:42.066Z,0.90
2018-12-20T13:09:12.602Z,1.40
2018-12-20T13:11:42.877Z,0.90
2018-12-20T13:14:13.760Z,1.10
2018-12-20T13:16:43.823Z,0.90
2018-12-20T13:19:14.232Z,0.70
2018-12-20T13:21:45.207Z,0.83
2018-12-20T13:24:15.498Z,0.93
2018-12-20T13:26:46.912Z,0.97
2018-12-20T13:29:17.138Z,0.93
2018-12-20T13:31:49.433Z,0.80
2018-12-20T13:34:19.767Z,1.10
2018-12-20T13:36:50.771Z,1.20
2018-12-20T13:39:20.341Z,0.87
2018-12-20T13:41:50.305Z,1.00
2018-12-20T13:44:20.748Z,1.17
2018-12-20T13:46:52.876Z,0.80
2018-12-20T13:49:23.333Z,1.07
2018-12-20T13:51:54.596Z,1.07
2018-12-20T13:54:26.184Z,1.00
2018-12-20T13:56:56.637Z,1.20
2018-12-20T13:59:28.229Z,1.03
2018-12-20T14:02:01.102Z,1.00
2018-12-20T14:04:31.162Z,1.17
2018-12-20T14:07:01.020Z,0.90
2018-12-20T14:09:31.615Z,0.80
2018-12-20T14:12:02.176Z,0.90
2018-12-20T14:14:33.119Z,1.13
2018-12-20T14:17:03.365Z,1.10
2018-12-20T14:19:33.788Z,1.10
2018-12-20T14:22:05.132Z,1.37
2018-12-20T14:24:36.378Z,0.97
2018-12-20T14:27:06.666Z,1.10
2018-12-20T14:29:37.626Z,1.23
2018-12-20T14:32:09.821Z,1.50
2018-12-20T14:34:43.054Z,1.10
2018-12-20T14:37:15.436Z,0.93
2018-12-20T14:39:45.045Z,1.00
2018-12-20T14:42:14.616Z,1.20
2018-12-20T14:44:44.946Z,0.97
2018-12-20T14:47:15.422Z,0.80
2018-12-20T14:49:45.057Z,0.90
2018-12-20T14:52:15.249Z,0.90
2018-12-20T14:54:46.139Z,0.90
2018-12-20T14:57:16.320Z,1.00
2018-12-20T14:59:46.624Z,1.07
2018-12-20T15:02:17.359Z,0.90
2018-12-20T15:04:48.349Z,1.00
2018-12-20T15:07:18.804Z,1.13
2018-12-20T15:09:50.030Z,1.30
2018-12-20T15:12:19.989Z,1.10
2018-12-20T15:14:50.981Z,1.07
2018-12-20T15:17:21.045Z,1.20
2018-12-20T15:19:51.819Z,1.17
2018-12-20T15:22:22.522Z,1.03
2018-12-20T15:24:53.236Z,1.00
2018-12-20T15:27:23.800Z,1.00
2018-12-20T15:29:56.008Z,1.20
2018-12-20T15:32:27.249Z,1.00
2018-12-20T15:34:58.404Z,1.10
2018-12-20T15:37:30.176Z,1.00
2018-12-20T15:40:01.378Z,1.27
2018-12-20T15:42:32.265Z,1.00
2018-12-20T15:45:04.276Z,1.03
2018-12-20T15:47:34.243Z,1.07
2018-12-20T15:50:04.409Z,1.10
2018-12-20T15:52:36.492Z,1.17
2018-12-20T15:55:06.887Z,0.90
2018-12-20T15:57:36.931Z,1.30
2018-12-20T16:00:08.370Z,1.00
2018-12-20T16:02:39.664Z,0.93
2018-12-20T16:05:10.290Z,1.10
2018-12-20T16:07:40.748Z,1.00
2018-12-20T16:10:11.302Z,1.00
2018-12-20T16:12:41.599Z,0.90
2018-12-20T16:15:11.973Z,1.27
2018-12-20T16:17:41.785Z,1.20
2018-12-20T16:20:11.936Z,1.10
2018-12-20T16:22:41.614Z,1.33
2018-12-20T16:25:12.077Z,1.20
2018-12-20T16:27:42.422Z,1.33
2018-12-20T16:30:12.955Z,1.23
2018-12-20T16:32:45.366Z,1.40
2018-12-20T16:35:16.302Z,1.50
2018-12-20T16:37:45.874Z,1.20
2018-12-20T16:40:15.555Z,1.47
2018-12-20T16:42:46.748Z,1.50
2018-12-20T16:45:16.514Z,1.60
2018-12-20T16:47:47.509Z,1.40
2018-12-20T16:50:18.222Z,1.50
2018-12-20T16:52:47.924Z,1.33
2018-12-20T16:55:17.535Z,1.30
2018-12-20T16:57:48.106Z,1.40
2018-12-20T17:00:19.617Z,1.80
2018-12-20T17:02:50.528Z,1.60
2018-12-20T17:05:22.415Z,1.40
2018-12-20T17:07:53.511Z,1.60
2018-12-20T17:10:23.084Z,1.40
2018-12-20T17:12:54.279Z,1.53
2018-12-20T17:15:24.400Z,1.57
2018-12-20T17:17:54.068Z,1.43
2018-12-20T17:20:25.062Z,2.03
2018-12-20T17:22:55.115Z,1.70
2018-12-20T17:25:27.875Z,1.57
2018-12-20T17:28:00.863Z,1.70
2018-12-20T17:30:31.865Z,2.10
2018-12-20T17:33:02.145Z,1.93
2018-12-20T17:35:33.078Z,1.50
2018-12-20T17:38:04.839Z,1.80
2018-12-20T17:40:34.899Z,2.70
2018-12-20T17:43:05.781Z,2.27
2018-12-20T17:45:36.939Z,2.20
2018-12-20T17:48:07.048Z,1.70
2018-12-20T17:50:38.116Z,1.90
2018-12-20T17:53:12.188Z,1.53
2018-12-20T17:55:44.973Z,1.80
2018-12-20T17:58:15.234Z,2.03
2018-12-20T18:00:44.982Z,1.63
2018-12-20T18:03:15.245Z,1.73
2018-12-20T18:05:47.187Z,1.53
2018-12-20T18:08:19.364Z,1.53
2018-12-20T18:10:50.036Z,1.43
2018-12-20T18:13:20.563Z,1.27
2018-12-20T18:15:52.459Z,1.67
2018-12-20T18:18:22.994Z,1.50
2018-12-20T18:20:53.554Z,1.90
2018-12-20T18:23:23.848Z,1.50
2018-12-20T18:25:53.395Z,1.80
2018-12-20T18:28:23.399Z,1.73
2018-12-20T18:30:53.791Z,1.80
2018-12-20T18:33:25.306Z,1.80
2018-12-20T18:35:56.813Z,1.90
2018-12-20T18:38:28.783Z,1.50
2018-12-20T18:40:59.113Z,1.80
2018-12-20T18:43:29.418Z,1.40
2018-12-20T18:45:59.521Z,1.80
2018-12-20T18:48:29.393Z,1.40
2018-12-20T18:51:00.423Z,1.80
2018-12-20T18:53:30.485Z,1.70
2018-12-20T18:56:00.474Z,1.83
2018-12-20T18:58:31.290Z,1.47
2018-12-20T19:01:01.416Z,1.80
2018-12-20T19:03:31.060Z,1.60
2018-12-20T19:06:01.360Z,2.20
2018-12-20T19:08:31.589Z,1.70
2018-12-20T19:11:01.724Z,1.83
2018-12-20T19:13:31.692Z,1.60
2018-12-20T19:16:01.952Z,1.77
2018-12-20T19:18:31.567Z,1.80
2018-12-20T19:21:03.049Z,1.83
2018-12-20T19:23:34.835Z,1.67
2018-12-20T19:26:07.064Z,1.70
2018-12-20T19:28:40.256Z,1.70
2018-12-20T19:31:12.799Z,1.80
2018-12-20T19:33:43.163Z,1.60
2018-12-20T19:36:13.391Z,2.17
2018-12-20T19:38:44.177Z,1.90
2018-12-20T19:41:15.020Z,2.20
2018-12-20T19:43:44.939Z,2.07
2018-12-20T19:46:15.239Z,2.07
2018-12-20T19:48:45.681Z,2.40
2018-12-20T19:51:15.253Z,2.30
2018-12-20T19:53:45.421Z,1.80
2018-12-20T19:56:15.562Z,2.00
2018-12-20T19:58:47.164Z,2.23
2018-12-20T20:01:17.601Z,1.60
2018-12-20T20:03:49.255Z,2.10
2018-12-20T20:06:20.404Z,2.23
2018-12-20T20:08:51.155Z,2.60
2018-12-20T20:11:21.153Z,2.20
2018-12-20T20:13:53.021Z,2.50
2018-12-20T20:16:22.831Z,2.00
2018-12-20T20:18:53.478Z,2.20
2018-12-20T20:21:24.653Z,2.03
2018-12-20T20:23:55.989Z,2.17
2018-12-20T20:26:26.303Z,1.90
2018-12-20T20:28:56.502Z,2.10
2018-12-20T20:31:26.960Z,2.10
2018-12-20T20:33:57.287Z,2.30
2018-12-20T20:36:28.244Z,2.30
2018-12-20T20:39:02.105Z,2.10
2018-12-20T20:41:32.455Z,2.00
2018-12-20T20:44:02.251Z,1.93
2018-12-20T20:46:32.575Z,2.00
2018-12-20T20:49:03.312Z,2.07
2018-12-20T20:51:34.812Z,1.80
2018-12-20T20:54:05.313Z,2.27
2018-12-20T20:56:35.976Z,1.90
2018-12-20T20:59:06.496Z,1.80
2018-12-20T21:01:38.876Z,1.50
2018-12-20T21:04:09.961Z,1.90
2018-12-20T21:06:47.004Z,2.30
2018-12-20T21:09:14.024Z,1.90
2018-12-20T21:11:44.045Z,1.80
2018-12-20T21:14:13.972Z,1.80
2018-12-20T21:16:44.414Z,1.90
2018-12-20T21:19:15.460Z,2.10
2018-12-20T21:21:45.726Z,1.77
2018-12-20T21:24:15.831Z,1.50
2018-12-20T21:26:45.282Z,2.20
2018-12-20T21:29:15.330Z,1.73
2018-12-20T21:31:45.945Z,1.80
2018-12-20T21:34:15.825Z,1.83
2018-12-20T21:36:47.594Z,1.80
2018-12-20T21:39:17.946Z,2.10
2018-12-20T21:41:49.613Z,2.47
2018-12-20T21:44:19.763Z,2.50
2018-12-20T21:46:49.899Z,1.90
2018-12-20T21:49:19.768Z,2.80
2018-12-20T21:51:50.240Z,2.57
2018-12-20T21:54:20.803Z,2.47
2018-12-20T21:56:50.378Z,2.57
2018-12-20T21:59:20.576Z,2.60
2018-12-20T22:01:50.473Z,2.43
2018-12-20T22:04:20.846Z,2.40
2018-12-20T22:06:50.842Z,2.80
2018-12-20T22:09:20.803Z,2.77
2018-12-20T22:11:51.139Z,2.60
2018-12-20T22:14:22.078Z,2.77
2018-12-20T22:16:52.106Z,2.47
2018-12-20T22:19:22.152Z,2.50
2018-12-20T22:21:56.216Z,2.60
2018-12-20T22:24:26.295Z,2.80
2018-12-20T22:26:57.063Z,2.57
2018-12-20T22:29:26.715Z,2.13
2018-12-20T22:31:57.132Z,2.60
2018-12-20T22:34:27.775Z,2.50
2018-12-20T22:36:58.614Z,2.40
2018-12-20T22:39:28.692Z,2.30
2018-12-20T22:41:59.410Z,2.20
2018-12-20T22:44:29.350Z,2.33
2018-12-20T22:46:58.963Z,2.63
2018-12-20T22:49:29.924Z,2.57
2018-12-20T22:52:00.768Z,2.30
2018-12-20T22:54:30.464Z,2.60
2018-12-20T22:57:00.717Z,2.60
2018-12-20T22:59:30.791Z,2.80
2018-12-20T23:02:00.506Z,2.30
2018-12-20T23:04:30.596Z,2.40
2018-12-20T23:07:02.815Z,2.20
2018-12-20T23:09:33.891Z,2.33
2018-12-20T23:12:08.491Z,2.03
2018-12-20T23:14:39.363Z,2.23
2018-12-20T23:17:10.160Z,2.30
2018-12-20T23:19:39.958Z,2.23
2018-12-20T23:22:10.753Z,2.63
2018-12-20T23:24:41.642Z,2.70
2018-12-20T23:27:12.196Z,2.23
2018-12-20T23:29:43.168Z,2.10
2018-12-20T23:32:12.751Z,2.20
2018-12-20T23:34:43.139Z,2.50
2018-12-20T23:37:13.134Z,1.97
2018-12-20T23:39:43.153Z,2.30
2018-12-20T23:42:12.993Z,2.63
2018-12-20T23:44:42.612Z,2.30
2018-12-20T23:47:12.155Z,2.27
2018-12-20T23:49:42.803Z,1.57
2018-12-20T23:52:12.860Z,1.90
2018-12-20T23:54:42.879Z,1.80
2018-12-20T23:57:14.211Z,1.80
2018-12-20T23:59:44.780Z,1.83
